sensor_id;sensor_type;location;lat;lon;timestamp;P1;durP1;ratioP1;P2;durP2;ratioP2
49310;SDS011;35177;45.900;5.946;2024-03-23T00:56:13;9.05;;;4.60;;
49310;SDS011;35177;45.900;5.946;2024-03-23T00:58:39;4.95;;;3.60;;
49310;SDS011;35177;45.900;5.946;2024-03-23T01:01:04;8.55;;;3.92;;
49310;SDS011;35177;45.900;5.946;2024-03-23T01:03:30;8.18;;;4.47;;
49310;SDS011;35177;45.900;5.946;2024-03-23T01:05:58;6.65;;;3.78;;
49310;SDS011;35177;45.900;5.946;2024-03-23T01:08:24;4.78;;;3.60;;
49310;SDS011;35177;45.900;5.946;2024-03-23T01:10:58;4.50;;;3.47;;
49310;SDS011;35177;45.900;5.946;2024-03-23T01:13:24;6.68;;;3.95;;
49310;SDS011;35177;45.900;5.946;2024-03-23T01:15:50;5.00;;;3.42;;
49310;SDS011;35177;45.900;5.946;2024-03-23T01:18:16;9.52;;;3.50;;
49310;SDS011;35177;45.900;5.946;2024-03-23T01:20:42;5.80;;;3.33;;
49310;SDS011;35177;45.900;5.946;2024-03-23T01:23:08;5.15;;;3.30;;
49310;SDS011;35177;45.900;5.946;2024-03-23T01:25:33;5.43;;;3.72;;
49310;SDS011;35177;45.900;5.946;2024-03-23T01:27:58;5.20;;;3.80;;
49310;SDS011;35177;45.900;5.946;2024-03-23T01:30:23;6.57;;;4.07;;
49310;SDS011;35177;45.900;5.946;2024-03-23T01:32:49;5.68;;;3.83;;
49310;SDS011;35177;45.900;5.946;2024-03-23T01:35:14;5.50;;;3.55;;
49310;SDS011;35177;45.900;5.946;2024-03-23T01:37:39;3.85;;;3.10;;
49310;SDS011;35177;45.900;5.946;2024-03-23T01:40:05;6.55;;;3.45;;
49310;SDS011;35177;45.900;5.946;2024-03-23T01:42:30;6.88;;;3.00;;
49310;SDS011;35177;45.900;5.946;2024-03-23T01:44:55;5.85;;;3.38;;
49310;SDS011;35177;45.900;5.946;2024-03-23T01:47:20;5.50;;;3.33;;
49310;SDS011;35177;45.900;5.946;2024-03-23T01:49:46;5.80;;;3.17;;
49310;SDS011;35177;45.900;5.946;2024-03-23T01:52:11;4.15;;;3.05;;
49310;SDS011;35177;45.900;5.946;2024-03-23T01:54:36;5.78;;;3.15;;
49310;SDS011;35177;45.900;5.946;2024-03-23T01:57:02;5.70;;;2.70;;
49310;SDS011;35177;45.900;5.946;2024-03-23T01:59:27;3.92;;;2.75;;
49310;SDS011;35177;45.900;5.946;2024-03-23T02:01:52;7.05;;;3.20;;
49310;SDS011;35177;45.900;5.946;2024-03-23T02:04:18;5.88;;;2.83;;
49310;SDS011;35177;45.900;5.946;2024-03-23T02:06:43;3.83;;;2.75;;
49310;SDS011;35177;45.900;5.946;2024-03-23T02:09:08;3.60;;;2.63;;
49310;SDS011;35177;45.900;5.946;2024-03-23T02:11:34;4.07;;;2.75;;
49310;SDS011;35177;45.900;5.946;2024-03-23T02:13:59;7.35;;;3.45;;
49310;SDS011;35177;45.900;5.946;2024-03-23T02:16:24;6.78;;;3.50;;
49310;SDS011;35177;45.900;5.946;2024-03-23T02:18:49;4.97;;;3.05;;
49310;SDS011;35177;45.900;5.946;2024-03-23T02:21:15;5.43;;;3.58;;
49310;SDS011;35177;45.900;5.946;2024-03-23T02:23:40;6.35;;;3.28;;
49310;SDS011;35177;45.900;5.946;2024-03-23T02:26:05;4.07;;;3.33;;
49310;SDS011;35177;45.900;5.946;2024-03-23T02:28:31;7.40;;;3.45;;
49310;SDS011;35177;45.900;5.946;2024-03-23T02:30:56;5.25;;;3.28;;
49310;SDS011;35177;45.900;5.946;2024-03-23T02:33:21;5.68;;;3.30;;
49310;SDS011;35177;45.900;5.946;2024-03-23T02:35:47;4.63;;;3.33;;
49310;SDS011;35177;45.900;5.946;2024-03-23T02:38:12;8.90;;;3.75;;
49310;SDS011;35177;45.900;5.946;2024-03-23T02:40:37;4.10;;;3.20;;
49310;SDS011;35177;45.900;5.946;2024-03-23T02:43:03;6.10;;;3.03;;
49310;SDS011;35177;45.900;5.946;2024-03-23T02:45:28;5.80;;;3.55;;
49310;SDS011;35177;45.900;5.946;2024-03-23T02:47:53;4.03;;;3.08;;
49310;SDS011;35177;45.900;5.946;2024-03-23T02:50:19;8.18;;;3.35;;
49310;SDS011;35177;45.900;5.946;2024-03-23T02:52:44;4.43;;;3.28;;
49310;SDS011;35177;45.900;5.946;2024-03-23T02:55:09;8.15;;;3.97;;
49310;SDS011;35177;45.900;5.946;2024-03-23T02:57:35;5.55;;;3.58;;
49310;SDS011;35177;45.900;5.946;2024-03-23T03:00:00;5.00;;;3.70;;
49310;SDS011;35177;45.900;5.946;2024-03-23T03:02:25;6.32;;;4.05;;
49310;SDS011;35177;45.900;5.946;2024-03-23T03:04:51;4.20;;;3.78;;
49310;SDS011;35177;45.900;5.946;2024-03-23T03:07:16;4.47;;;3.70;;
49310;SDS011;35177;45.900;5.946;2024-03-23T03:09:42;7.30;;;3.20;;
49310;SDS011;35177;45.900;5.946;2024-03-23T03:12:07;3.92;;;2.58;;
49310;SDS011;35177;45.900;5.946;2024-03-23T03:14:33;4.78;;;3.10;;
49310;SDS011;35177;45.900;5.946;2024-03-23T03:16:58;7.78;;;3.30;;
49310;SDS011;35177;45.900;5.946;2024-03-23T03:19:23;4.50;;;3.35;;
49310;SDS011;35177;45.900;5.946;2024-03-23T03:21:49;6.43;;;2.75;;
49310;SDS011;35177;45.900;5.946;2024-03-23T03:24:14;8.30;;;3.50;;
49310;SDS011;35177;45.900;5.946;2024-03-23T03:26:39;10.27;;;3.30;;
49310;SDS011;35177;45.900;5.946;2024-03-23T03:29:05;4.35;;;3.67;;
49310;SDS011;35177;45.900;5.946;2024-03-23T03:31:30;7.15;;;3.58;;
49310;SDS011;35177;45.900;5.946;2024-03-23T03:33:55;6.90;;;3.55;;
49310;SDS011;35177;45.900;5.946;2024-03-23T03:36:20;6.88;;;3.63;;
49310;SDS011;35177;45.900;5.946;2024-03-23T03:38:46;4.32;;;3.30;;
49310;SDS011;35177;45.900;5.946;2024-03-23T03:41:11;8.15;;;3.42;;
49310;SDS011;35177;45.900;5.946;2024-03-23T03:43:36;4.07;;;3.13;;
49310;SDS011;35177;45.900;5.946;2024-03-23T03:46:03;6.88;;;3.08;;
49310;SDS011;35177;45.900;5.946;2024-03-23T03:48:28;5.13;;;3.47;;
49310;SDS011;35177;45.900;5.946;2024-03-23T03:50:53;6.50;;;3.45;;
49310;SDS011;35177;45.900;5.946;2024-03-23T03:53:19;7.55;;;3.83;;
49310;SDS011;35177;45.900;5.946;2024-03-23T03:55:44;5.82;;;3.70;;
49310;SDS011;35177;45.900;5.946;2024-03-23T03:58:10;5.68;;;3.75;;
49310;SDS011;35177;45.900;5.946;2024-03-23T04:00:35;5.13;;;3.53;;
49310;SDS011;35177;45.900;5.946;2024-03-23T04:03:01;5.63;;;3.92;;
49310;SDS011;35177;45.900;5.946;2024-03-23T04:05:26;7.78;;;4.68;;
49310;SDS011;35177;45.900;5.946;2024-03-23T04:07:51;6.32;;;3.42;;
49310;SDS011;35177;45.900;5.946;2024-03-23T04:10:17;6.07;;;3.47;;
49310;SDS011;35177;45.900;5.946;2024-03-23T04:12:43;7.38;;;3.22;;
49310;SDS011;35177;45.900;5.946;2024-03-23T04:15:08;18.85;;;3.33;;
49310;SDS011;35177;45.900;5.946;2024-03-23T04:17:33;4.20;;;3.08;;
49310;SDS011;35177;45.900;5.946;2024-03-23T04:19:59;5.28;;;3.35;;
49310;SDS011;35177;45.900;5.946;2024-03-23T04:22:25;7.28;;;3.38;;
49310;SDS011;35177;45.900;5.946;2024-03-23T04:24:52;8.82;;;3.97;;
49310;SDS011;35177;45.900;5.946;2024-03-23T04:27:18;4.95;;;3.70;;
49310;SDS011;35177;45.900;5.946;2024-03-23T04:29:46;9.27;;;4.30;;
49310;SDS011;35177;45.900;5.946;2024-03-23T04:32:11;8.98;;;4.47;;
49310;SDS011;35177;45.900;5.946;2024-03-23T04:34:36;7.18;;;4.78;;
49310;SDS011;35177;45.900;5.946;2024-03-23T04:37:02;11.07;;;4.13;;
49310;SDS011;35177;45.900;5.946;2024-03-23T04:39:27;9.35;;;3.80;;
49310;SDS011;35177;45.900;5.946;2024-03-23T04:41:52;6.30;;;3.38;;
49310;SDS011;35177;45.900;5.946;2024-03-23T04:44:17;9.15;;;3.70;;
49310;SDS011;35177;45.900;5.946;2024-03-23T04:46:43;7.13;;;3.30;;
49310;SDS011;35177;45.900;5.946;2024-03-23T04:49:08;6.53;;;3.88;;
49310;SDS011;35177;45.900;5.946;2024-03-23T04:51:36;10.82;;;3.85;;
49310;SDS011;35177;45.900;5.946;2024-03-23T04:54:02;9.52;;;4.57;;
49310;SDS011;35177;45.900;5.946;2024-03-23T04:56:28;6.72;;;4.15;;
49310;SDS011;35177;45.900;5.946;2024-03-23T04:58:53;6.10;;;3.80;;
49310;SDS011;35177;45.900;5.946;2024-03-23T05:01:19;9.73;;;4.05;;
49310;SDS011;35177;45.900;5.946;2024-03-23T05:03:44;7.53;;;4.15;;
49310;SDS011;35177;45.900;5.946;2024-03-23T05:06:09;7.30;;;3.70;;
49310;SDS011;35177;45.900;5.946;2024-03-23T05:08:35;6.05;;;4.20;;
49310;SDS011;35177;45.900;5.946;2024-03-23T05:11:00;6.53;;;3.83;;
49310;SDS011;35177;45.900;5.946;2024-03-23T05:13:25;6.70;;;4.18;;
49310;SDS011;35177;45.900;5.946;2024-03-23T05:15:54;9.50;;;4.82;;
49310;SDS011;35177;45.900;5.946;2024-03-23T05:18:20;7.10;;;4.50;;
49310;SDS011;35177;45.900;5.946;2024-03-23T05:20:45;7.50;;;4.30;;
49310;SDS011;35177;45.900;5.946;2024-03-23T05:23:10;9.85;;;8.07;;
49310;SDS011;35177;45.900;5.946;2024-03-23T05:25:35;7.90;;;4.97;;
49310;SDS011;35177;45.900;5.946;2024-03-23T05:28:01;9.70;;;6.72;;
49310;SDS011;35177;45.900;5.946;2024-03-23T05:30:26;7.95;;;5.10;;
49310;SDS011;35177;45.900;5.946;2024-03-23T05:32:51;5.88;;;4.57;;
49310;SDS011;35177;45.900;5.946;2024-03-23T05:35:16;6.82;;;4.53;;
49310;SDS011;35177;45.900;5.946;2024-03-23T05:37:42;7.38;;;5.10;;
49310;SDS011;35177;45.900;5.946;2024-03-23T05:40:07;7.82;;;4.88;;
49310;SDS011;35177;45.900;5.946;2024-03-23T05:42:34;5.55;;;4.53;;
49310;SDS011;35177;45.900;5.946;2024-03-23T05:44:59;8.68;;;5.05;;
49310;SDS011;35177;45.900;5.946;2024-03-23T05:47:24;10.07;;;5.18;;
49310;SDS011;35177;45.900;5.946;2024-03-23T05:49:50;12.07;;;5.45;;
49310;SDS011;35177;45.900;5.946;2024-03-23T05:52:16;11.88;;;5.40;;
49310;SDS011;35177;45.900;5.946;2024-03-23T05:54:42;9.38;;;4.93;;
49310;SDS011;35177;45.900;5.946;2024-03-23T05:57:08;10.20;;;4.80;;
49310;SDS011;35177;45.900;5.946;2024-03-23T05:59:33;9.55;;;5.90;;
49310;SDS011;35177;45.900;5.946;2024-03-23T06:01:59;13.45;;;6.57;;
49310;SDS011;35177;45.900;5.946;2024-03-23T06:04:24;10.23;;;6.43;;
49310;SDS011;35177;45.900;5.946;2024-03-23T06:06:50;10.85;;;6.80;;
49310;SDS011;35177;45.900;5.946;2024-03-23T06:09:17;8.90;;;6.13;;
49310;SDS011;35177;45.900;5.946;2024-03-23T06:11:42;11.90;;;6.10;;
49310;SDS011;35177;45.900;5.946;2024-03-23T06:14:07;11.38;;;6.60;;
49310;SDS011;35177;45.900;5.946;2024-03-23T06:16:33;11.13;;;6.85;;
49310;SDS011;35177;45.900;5.946;2024-03-23T06:18:58;9.70;;;6.18;;
49310;SDS011;35177;45.900;5.946;2024-03-23T06:21:23;29.58;;;6.82;;
49310;SDS011;35177;45.900;5.946;2024-03-23T06:23:51;8.63;;;4.95;;
49310;SDS011;35177;45.900;5.946;2024-03-23T06:26:20;10.13;;;5.10;;
49310;SDS011;35177;45.900;5.946;2024-03-23T06:28:46;7.93;;;4.18;;
49310;SDS011;35177;45.900;5.946;2024-03-23T06:31:11;6.18;;;4.35;;
49310;SDS011;35177;45.900;5.946;2024-03-23T06:33:36;7.80;;;4.20;;
49310;SDS011;35177;45.900;5.946;2024-03-23T06:36:02;4.88;;;3.22;;
49310;SDS011;35177;45.900;5.946;2024-03-23T06:38:28;5.88;;;3.60;;
49310;SDS011;35177;45.900;5.946;2024-03-23T06:40:53;6.18;;;3.90;;
49310;SDS011;35177;45.900;5.946;2024-03-23T06:43:18;4.28;;;3.40;;
49310;SDS011;35177;45.900;5.946;2024-03-23T06:45:44;5.80;;;3.80;;
49310;SDS011;35177;45.900;5.946;2024-03-23T06:48:09;5.57;;;3.90;;
49310;SDS011;35177;45.900;5.946;2024-03-23T06:50:34;7.05;;;3.80;;
49310;SDS011;35177;45.900;5.946;2024-03-23T06:53:00;6.10;;;4.05;;
49310;SDS011;35177;45.900;5.946;2024-03-23T06:55:27;5.85;;;3.80;;
49310;SDS011;35177;45.900;5.946;2024-03-23T06:57:52;6.38;;;3.55;;
49310;SDS011;35177;45.900;5.946;2024-03-23T07:00:18;4.53;;;3.70;;
49310;SDS011;35177;45.900;5.946;2024-03-23T07:02:43;4.00;;;3.53;;
49310;SDS011;35177;45.900;5.946;2024-03-23T07:05:09;4.05;;;3.08;;
49310;SDS011;35177;45.900;5.946;2024-03-23T07:07:35;4.68;;;3.50;;
49310;SDS011;35177;45.900;5.946;2024-03-23T07:10:00;4.43;;;3.50;;
49310;SDS011;35177;45.900;5.946;2024-03-23T07:12:25;4.30;;;3.50;;
49310;SDS011;35177;45.900;5.946;2024-03-23T07:14:50;5.43;;;3.95;;
49310;SDS011;35177;45.900;5.946;2024-03-23T07:17:15;4.22;;;3.28;;
49310;SDS011;35177;45.900;5.946;2024-03-23T07:19:43;4.13;;;3.25;;
49310;SDS011;35177;45.900;5.946;2024-03-23T07:22:08;4.50;;;3.08;;
49310;SDS011;35177;45.900;5.946;2024-03-23T07:24:33;6.13;;;3.60;;
49310;SDS011;35177;45.900;5.946;2024-03-23T07:26:59;6.03;;;3.40;;
49310;SDS011;35177;45.900;5.946;2024-03-23T07:29:24;5.45;;;3.28;;
49310;SDS011;35177;45.900;5.946;2024-03-23T07:31:49;5.68;;;2.92;;
49310;SDS011;35177;45.900;5.946;2024-03-23T07:34:14;4.43;;;3.13;;
49310;SDS011;35177;45.900;5.946;2024-03-23T07:36:40;4.40;;;3.20;;
49310;SDS011;35177;45.900;5.946;2024-03-23T07:39:05;4.05;;;3.53;;
49310;SDS011;35177;45.900;5.946;2024-03-23T07:41:30;5.50;;;3.70;;
49310;SDS011;35177;45.900;5.946;2024-03-23T07:43:56;3.70;;;3.30;;
49310;SDS011;35177;45.900;5.946;2024-03-23T07:46:21;4.38;;;3.13;;
49310;SDS011;35177;45.900;5.946;2024-03-23T07:48:46;4.15;;;3.10;;
49310;SDS011;35177;45.900;5.946;2024-03-23T07:51:20;6.07;;;3.15;;
49310;SDS011;35177;45.900;5.946;2024-03-23T07:53:45;2.42;;;1.90;;
49310;SDS011;35177;45.900;5.946;2024-03-23T07:56:14;2.33;;;1.80;;
49310;SDS011;35177;45.900;5.946;2024-03-23T07:58:43;1.40;;;1.10;;
49310;SDS011;35177;45.900;5.946;2024-03-23T08:01:10;1.55;;;1.00;;
49310;SDS011;35177;45.900;5.946;2024-03-23T08:03:36;1.20;;;0.77;;
49310;SDS011;35177;45.900;5.946;2024-03-23T08:08:33;1.77;;;0.82;;
49310;SDS011;35177;45.900;5.946;2024-03-23T08:10:58;0.75;;;0.70;;
49310;SDS011;35177;45.900;5.946;2024-03-23T08:13:24;0.68;;;0.68;;
49310;SDS011;35177;45.900;5.946;2024-03-23T08:15:49;1.13;;;0.73;;
49310;SDS011;35177;45.900;5.946;2024-03-23T08:21:17;1.17;;;0.65;;
49310;SDS011;35177;45.900;5.946;2024-03-23T08:23:43;2.65;;;0.80;;
49310;SDS011;35177;45.900;5.946;2024-03-23T08:26:09;0.68;;;0.50;;
49310;SDS011;35177;45.900;5.946;2024-03-23T08:28:35;1.10;;;0.50;;
49310;SDS011;35177;45.900;5.946;2024-03-23T08:31:00;1.15;;;0.40;;
49310;SDS011;35177;45.900;5.946;2024-03-23T08:33:26;1.40;;;0.40;;
49310;SDS011;35177;45.900;5.946;2024-03-23T08:35:54;0.70;;;0.40;;
49310;SDS011;35177;45.900;5.946;2024-03-23T08:38:20;1.95;;;0.80;;
49310;SDS011;35177;45.900;5.946;2024-03-23T08:40:46;0.77;;;0.47;;
49310;SDS011;35177;45.900;5.946;2024-03-23T08:43:11;1.38;;;0.43;;
49310;SDS011;35177;45.900;5.946;2024-03-23T08:45:36;1.60;;;0.57;;
49310;SDS011;35177;45.900;5.946;2024-03-23T08:48:01;2.13;;;0.63;;
49310;SDS011;35177;45.900;5.946;2024-03-23T08:50:27;1.10;;;0.45;;
49310;SDS011;35177;45.900;5.946;2024-03-23T08:52:52;2.33;;;0.50;;
49310;SDS011;35177;45.900;5.946;2024-03-23T08:55:17;0.60;;;0.30;;
49310;SDS011;35177;45.900;5.946;2024-03-23T08:57:42;1.20;;;0.50;;
49310;SDS011;35177;45.900;5.946;2024-03-23T09:00:09;1.33;;;0.30;;
49310;SDS011;35177;45.900;5.946;2024-03-23T09:02:36;0.40;;;0.30;;
49310;SDS011;35177;45.900;5.946;2024-03-23T09:05:01;1.23;;;0.50;;
49310;SDS011;35177;45.900;5.946;2024-03-23T09:07:30;1.00;;;0.40;;
49310;SDS011;35177;45.900;5.946;2024-03-23T09:09:55;2.63;;;0.68;;
49310;SDS011;35177;45.900;5.946;2024-03-23T09:12:20;1.73;;;0.70;;
49310;SDS011;35177;45.900;5.946;2024-03-23T09:14:46;1.23;;;0.60;;
49310;SDS011;35177;45.900;5.946;2024-03-23T09:17:12;1.77;;;0.88;;
49310;SDS011;35177;45.900;5.946;2024-03-23T09:19:38;1.77;;;0.80;;
49310;SDS011;35177;45.900;5.946;2024-03-23T09:22:04;1.23;;;0.70;;
49310;SDS011;35177;45.900;5.946;2024-03-23T09:24:30;2.97;;;0.77;;
49310;SDS011;35177;45.900;5.946;2024-03-23T09:26:57;4.20;;;0.82;;
49310;SDS011;35177;45.900;5.946;2024-03-23T09:29:22;0.90;;;0.50;;
49310;SDS011;35177;45.900;5.946;2024-03-23T09:31:47;1.25;;;0.70;;
49310;SDS011;35177;45.900;5.946;2024-03-23T09:34:12;0.57;;;0.38;;
49310;SDS011;35177;45.900;5.946;2024-03-23T09:36:38;1.63;;;0.57;;
49310;SDS011;35177;45.900;5.946;2024-03-23T09:39:03;3.40;;;0.98;;
49310;SDS011;35177;45.900;5.946;2024-03-23T09:41:30;1.10;;;0.47;;
49310;SDS011;35177;45.900;5.946;2024-03-23T09:43:56;1.35;;;0.60;;
49310;SDS011;35177;45.900;5.946;2024-03-23T09:46:21;3.22;;;0.85;;
49310;SDS011;35177;45.900;5.946;2024-03-23T09:48:46;4.13;;;0.80;;
49310;SDS011;35177;45.900;5.946;2024-03-23T09:51:12;3.40;;;0.65;;
49310;SDS011;35177;45.900;5.946;2024-03-23T09:53:37;1.60;;;0.77;;
49310;SDS011;35177;45.900;5.946;2024-03-23T09:56:02;1.38;;;0.52;;
49310;SDS011;35177;45.900;5.946;2024-03-23T09:58:28;2.95;;;0.60;;
49310;SDS011;35177;45.900;5.946;2024-03-23T10:00:53;2.10;;;0.80;;
49310;SDS011;35177;45.900;5.946;2024-03-23T10:03:18;8.48;;;1.15;;
49310;SDS011;35177;45.900;5.946;2024-03-23T10:05:43;2.53;;;1.20;;
49310;SDS011;35177;45.900;5.946;2024-03-23T10:10:38;7.10;;;1.35;;
49310;SDS011;35177;45.900;5.946;2024-03-23T10:13:03;3.60;;;1.00;;
49310;SDS011;35177;45.900;5.946;2024-03-23T10:15:28;3.28;;;1.00;;
49310;SDS011;35177;45.900;5.946;2024-03-23T10:17:54;4.28;;;1.20;;
49310;SDS011;35177;45.900;5.946;2024-03-23T10:20:20;5.13;;;1.08;;
49310;SDS011;35177;45.900;5.946;2024-03-23T10:22:47;4.88;;;0.93;;
49310;SDS011;35177;45.900;5.946;2024-03-23T10:25:13;3.00;;;0.85;;
49310;SDS011;35177;45.900;5.946;2024-03-23T10:27:39;5.38;;;1.40;;
49310;SDS011;35177;45.900;5.946;2024-03-23T10:30:08;5.85;;;1.20;;
49310;SDS011;35177;45.900;5.946;2024-03-23T10:32:34;3.72;;;0.90;;
49310;SDS011;35177;45.900;5.946;2024-03-23T10:35:15;2.45;;;0.73;;
49310;SDS011;35177;45.900;5.946;2024-03-23T10:37:41;3.65;;;1.08;;
49310;SDS011;35177;45.900;5.946;2024-03-23T10:40:07;6.57;;;1.30;;
49310;SDS011;35177;45.900;5.946;2024-03-23T10:42:36;9.82;;;1.42;;
49310;SDS011;35177;45.900;5.946;2024-03-23T10:45:02;5.57;;;1.15;;
49310;SDS011;35177;45.900;5.946;2024-03-23T10:47:28;3.88;;;1.17;;
49310;SDS011;35177;45.900;5.946;2024-03-23T10:49:54;4.80;;;1.60;;
49310;SDS011;35177;45.900;5.946;2024-03-23T10:52:19;4.22;;;1.45;;
49310;SDS011;35177;45.900;5.946;2024-03-23T10:54:44;7.05;;;1.40;;
49310;SDS011;35177;45.900;5.946;2024-03-23T10:57:13;6.38;;;1.70;;
49310;SDS011;35177;45.900;5.946;2024-03-23T10:59:39;6.90;;;1.58;;
49310;SDS011;35177;45.900;5.946;2024-03-23T11:02:05;4.85;;;1.38;;
49310;SDS011;35177;45.900;5.946;2024-03-23T11:06:58;5.15;;;1.05;;
49310;SDS011;35177;45.900;5.946;2024-03-23T11:09:39;4.60;;;1.20;;
49310;SDS011;35177;45.900;5.946;2024-03-23T11:14:48;3.38;;;1.08;;
49310;SDS011;35177;45.900;5.946;2024-03-23T11:17:17;11.88;;;3.17;;
49310;SDS011;35177;45.900;5.946;2024-03-23T11:19:43;8.30;;;3.25;;
49310;SDS011;35177;45.900;5.946;2024-03-23T11:22:08;13.50;;;4.50;;
49310;SDS011;35177;45.900;5.946;2024-03-23T11:24:33;11.82;;;3.95;;
49310;SDS011;35177;45.900;5.946;2024-03-23T11:26:59;5.22;;;1.77;;
49310;SDS011;35177;45.900;5.946;2024-03-23T11:29:29;7.80;;;2.10;;
49310;SDS011;35177;45.900;5.946;2024-03-23T11:31:55;4.75;;;1.58;;
49310;SDS011;35177;45.900;5.946;2024-03-23T11:34:20;7.30;;;1.45;;
49310;SDS011;35177;45.900;5.946;2024-03-23T11:36:46;5.85;;;1.77;;
49310;SDS011;35177;45.900;5.946;2024-03-23T11:39:14;6.00;;;2.00;;
49310;SDS011;35177;45.900;5.946;2024-03-23T11:41:49;4.68;;;1.33;;
49310;SDS011;35177;45.900;5.946;2024-03-23T11:44:21;5.32;;;1.50;;
49310;SDS011;35177;45.900;5.946;2024-03-23T11:46:49;4.93;;;1.45;;
49310;SDS011;35177;45.900;5.946;2024-03-23T11:49:24;6.43;;;1.20;;
49310;SDS011;35177;45.900;5.946;2024-03-23T11:51:50;7.10;;;1.38;;
49310;SDS011;35177;45.900;5.946;2024-03-23T11:54:16;7.28;;;1.60;;
49310;SDS011;35177;45.900;5.946;2024-03-23T11:56:53;5.30;;;1.30;;
49310;SDS011;35177;45.900;5.946;2024-03-23T11:59:40;5.80;;;1.52;;
49310;SDS011;35177;45.900;5.946;2024-03-23T12:02:14;4.38;;;1.00;;
49310;SDS011;35177;45.900;5.946;2024-03-23T12:04:43;6.82;;;1.33;;
49310;SDS011;35177;45.900;5.946;2024-03-23T12:07:12;4.85;;;1.40;;
49310;SDS011;35177;45.900;5.946;2024-03-23T12:09:37;11.00;;;2.05;;
49310;SDS011;35177;45.900;5.946;2024-03-23T12:12:07;3.65;;;1.35;;
49310;SDS011;35177;45.900;5.946;2024-03-23T12:14:32;9.07;;;1.33;;
49310;SDS011;35177;45.900;5.946;2024-03-23T12:17:07;4.55;;;1.55;;
49310;SDS011;35177;45.900;5.946;2024-03-23T12:21:57;6.38;;;1.40;;
49310;SDS011;35177;45.900;5.946;2024-03-23T12:24:22;4.05;;;1.10;;
49310;SDS011;35177;45.900;5.946;2024-03-23T12:26:48;8.38;;;2.97;;
49310;SDS011;35177;45.900;5.946;2024-03-23T12:29:15;4.82;;;1.33;;
49310;SDS011;35177;45.900;5.946;2024-03-23T12:31:40;5.43;;;2.15;;
49310;SDS011;35177;45.900;5.946;2024-03-23T12:34:06;6.65;;;2.35;;
49310;SDS011;35177;45.900;5.946;2024-03-23T12:36:31;5.85;;;2.13;;
49310;SDS011;35177;45.900;5.946;2024-03-23T12:38:56;5.72;;;1.50;;
49310;SDS011;35177;45.900;5.946;2024-03-23T12:41:21;7.57;;;3.28;;
49310;SDS011;35177;45.900;5.946;2024-03-23T12:43:48;5.50;;;1.63;;
49310;SDS011;35177;45.900;5.946;2024-03-23T12:46:14;9.02;;;2.17;;
49310;SDS011;35177;45.900;5.946;2024-03-23T12:48:39;10.32;;;3.33;;
49310;SDS011;35177;45.900;5.946;2024-03-23T12:51:04;3.90;;;1.15;;
49310;SDS011;35177;45.900;5.946;2024-03-23T12:53:29;3.30;;;1.02;;
49310;SDS011;35177;45.900;5.946;2024-03-23T12:55:55;5.70;;;1.10;;
49310;SDS011;35177;45.900;5.946;2024-03-23T12:58:22;4.07;;;1.23;;
49310;SDS011;35177;45.900;5.946;2024-03-23T13:00:47;4.95;;;1.70;;
49310;SDS011;35177;45.900;5.946;2024-03-23T13:03:13;4.18;;;1.20;;
49310;SDS011;35177;45.900;5.946;2024-03-23T13:05:38;8.43;;;2.45;;
49310;SDS011;35177;45.900;5.946;2024-03-23T13:08:05;4.00;;;1.30;;
49310;SDS011;35177;45.900;5.946;2024-03-23T13:10:30;5.28;;;0.98;;
49310;SDS011;35177;45.900;5.946;2024-03-23T13:12:56;4.45;;;1.17;;
49310;SDS011;35177;45.900;5.946;2024-03-23T13:15:21;5.53;;;1.48;;
49310;SDS011;35177;45.900;5.946;2024-03-23T13:17:46;6.28;;;1.40;;
49310;SDS011;35177;45.900;5.946;2024-03-23T13:20:11;4.30;;;1.20;;
49310;SDS011;35177;45.900;5.946;2024-03-23T13:22:39;9.00;;;2.60;;
49310;SDS011;35177;45.900;5.946;2024-03-23T13:25:05;3.78;;;1.17;;
49310;SDS011;35177;45.900;5.946;2024-03-23T13:27:30;6.15;;;1.30;;
49310;SDS011;35177;45.900;5.946;2024-03-23T13:29:55;3.08;;;1.67;;
49310;SDS011;35177;45.900;5.946;2024-03-23T13:32:21;3.22;;;2.08;;
49310;SDS011;35177;45.900;5.946;2024-03-23T13:34:46;4.72;;;1.70;;
49310;SDS011;35177;45.900;5.946;2024-03-23T13:37:15;4.20;;;1.45;;
49310;SDS011;35177;45.900;5.946;2024-03-23T13:39:40;3.80;;;1.23;;
49310;SDS011;35177;45.900;5.946;2024-03-23T13:42:07;4.88;;;2.20;;
49310;SDS011;35177;45.900;5.946;2024-03-23T13:44:34;3.47;;;1.02;;
49310;SDS011;35177;45.900;5.946;2024-03-23T13:46:59;7.90;;;1.88;;
49310;SDS011;35177;45.900;5.946;2024-03-23T13:51:53;1.77;;;0.93;;
49310;SDS011;35177;45.900;5.946;2024-03-23T13:54:19;2.88;;;0.88;;
49310;SDS011;35177;45.900;5.946;2024-03-23T13:56:44;3.58;;;0.98;;
49310;SDS011;35177;45.900;5.946;2024-03-23T13:59:09;5.20;;;1.17;;
49310;SDS011;35177;45.900;5.946;2024-03-23T14:01:35;3.97;;;1.38;;
49310;SDS011;35177;45.900;5.946;2024-03-23T14:04:00;4.20;;;1.42;;
49310;SDS011;35177;45.900;5.946;2024-03-23T14:06:25;6.00;;;1.15;;
49310;SDS011;35177;45.900;5.946;2024-03-23T14:08:51;6.20;;;1.20;;
49310;SDS011;35177;45.900;5.946;2024-03-23T14:11:17;3.22;;;1.35;;
49310;SDS011;35177;45.900;5.946;2024-03-23T14:13:43;2.55;;;1.48;;
49310;SDS011;35177;45.900;5.946;2024-03-23T14:16:08;2.95;;;0.90;;
49310;SDS011;35177;45.900;5.946;2024-03-23T14:18:33;4.72;;;1.40;;
49310;SDS011;35177;45.900;5.946;2024-03-23T14:20:59;3.40;;;2.17;;
49310;SDS011;35177;45.900;5.946;2024-03-23T14:23:26;8.63;;;5.30;;
49310;SDS011;35177;45.900;5.946;2024-03-23T14:25:54;7.15;;;1.92;;
49310;SDS011;35177;45.900;5.946;2024-03-23T14:28:19;6.18;;;0.80;;
49310;SDS011;35177;45.900;5.946;2024-03-23T14:30:45;2.55;;;0.77;;
49310;SDS011;35177;45.900;5.946;2024-03-23T14:33:10;4.88;;;1.00;;
49310;SDS011;35177;45.900;5.946;2024-03-23T14:35:35;4.45;;;1.02;;
49310;SDS011;35177;45.900;5.946;2024-03-23T14:38:01;2.63;;;0.90;;
49310;SDS011;35177;45.900;5.946;2024-03-23T14:40:27;3.97;;;1.02;;
49310;SDS011;35177;45.900;5.946;2024-03-23T14:42:53;4.32;;;1.02;;
49310;SDS011;35177;45.900;5.946;2024-03-23T14:45:18;2.47;;;1.05;;
49310;SDS011;35177;45.900;5.946;2024-03-23T14:47:43;4.40;;;1.17;;
49310;SDS011;35177;45.900;5.946;2024-03-23T14:50:10;2.28;;;0.90;;
49310;SDS011;35177;45.900;5.946;2024-03-23T14:52:39;2.67;;;0.93;;
49310;SDS011;35177;45.900;5.946;2024-03-23T14:55:04;3.30;;;0.70;;
49310;SDS011;35177;45.900;5.946;2024-03-23T14:57:30;2.47;;;0.90;;
49310;SDS011;35177;45.900;5.946;2024-03-23T14:59:56;3.70;;;0.90;;
49310;SDS011;35177;45.900;5.946;2024-03-23T15:02:21;1.98;;;0.70;;
49310;SDS011;35177;45.900;5.946;2024-03-23T15:04:46;5.10;;;1.23;;
49310;SDS011;35177;45.900;5.946;2024-03-23T15:07:11;3.42;;;0.93;;
49310;SDS011;35177;45.900;5.946;2024-03-23T15:09:37;3.97;;;0.90;;
49310;SDS011;35177;45.900;5.946;2024-03-23T15:12:02;2.42;;;1.00;;
49310;SDS011;35177;45.900;5.946;2024-03-23T15:14:27;2.60;;;0.90;;
49310;SDS011;35177;45.900;5.946;2024-03-23T15:16:52;4.20;;;1.55;;
49310;SDS011;35177;45.900;5.946;2024-03-23T15:19:19;2.17;;;0.82;;
49310;SDS011;35177;45.900;5.946;2024-03-23T15:21:44;2.55;;;1.20;;
49310;SDS011;35177;45.900;5.946;2024-03-23T15:24:09;2.92;;;0.88;;
49310;SDS011;35177;45.900;5.946;2024-03-23T15:26:37;2.83;;;1.08;;
49310;SDS011;35177;45.900;5.946;2024-03-23T15:29:03;2.50;;;0.90;;
49310;SDS011;35177;45.900;5.946;2024-03-23T15:31:35;4.95;;;0.90;;
49310;SDS011;35177;45.900;5.946;2024-03-23T15:34:00;3.75;;;1.00;;
49310;SDS011;35177;45.900;5.946;2024-03-23T15:36:25;5.78;;;1.40;;
49310;SDS011;35177;45.900;5.946;2024-03-23T15:38:50;5.40;;;1.67;;
49310;SDS011;35177;45.900;5.946;2024-03-23T15:41:16;2.58;;;1.20;;
49310;SDS011;35177;45.900;5.946;2024-03-23T15:43:41;3.65;;;1.33;;
49310;SDS011;35177;45.900;5.946;2024-03-23T15:46:06;2.22;;;0.70;;
49310;SDS011;35177;45.900;5.946;2024-03-23T15:48:32;2.17;;;0.95;;
49310;SDS011;35177;45.900;5.946;2024-03-23T15:51:01;3.65;;;1.05;;
49310;SDS011;35177;45.900;5.946;2024-03-23T15:53:28;4.80;;;1.10;;